RKTU/CHN METAR and TAF weather

Enter ICAO airport designator
Station Type Date Time Source
RKTU METAR 2020/02/19 14:00 UTC NOAA

RKTU 191400Z 04001KT CAVOK 00/M02 Q1030


Station Type Date Time Source
RKTU Decoded METAR 2020/02/19 14:00 UTC NOAA

Chongju Ab, Korea, South (RKTU) 36-42N 127-30E 66M
Feb 19, 2020 - 09:00 AM EST / 2020.02.19 1400 UTC
Wind: from the NE (040 degrees) at 1 MPH (1 KT):0
Visibility: greater than 7 mile(s):0
Temperature: 32 F (0 C)
Dew Point: 28 F (-2 C)
Relative Humidity: 86%
Pressure (altimeter): 30.42 in. Hg (1030 hPa)
ob: RKTU 191400Z 04001KT CAVOK 00/M02 Q1030
cycle: 14

Station Type Date Time Source
RKTU TAF 2020/02/19 12:12 UTC NOAA

TAF TAF RKTU 191100Z 1912/2018 27006KT 9999 SCT030 BKN200 TNM02/1921Z TX11/2006Z
BECMG 1917/1918 4800 BR SCT030
BECMG 1923/1924 1600
BECMG 2001/2002 4800
BECMG 2002/2003 9999 NSW

Example: see airport list